Kezdőlap
METAR-TAF:

METAR-TAF

Repülőterek :

Besztercebánya, Szlovákia

földrajzi szélesség: 48-38-17N, földrajzi hosszúság: 019-08-03E, magasság: 318 m

METAR: hiányzik

Idő: 06:28 (04:28 UTC)

Előrejelzés

A jelentés 8 órával és 58 perccel ezelõtt készült, 19:30 UTC
Az előrejelzés 14-én 21 óra UTC és 15-én 06 óra UTC között érvényes
Különbözõ irányokból fújó szél 2 kt
Látótávolság 10 km, vagy több
felhőtlen 1500 m magasságban, és nincs gomolyfelhõ

TAF: LZSL 141930Z 1421/1506 VRB02KT CAVOK

Meteorológiai megfigyelések és előrejelzések több, mint 4000 repülőtéren (METAR és TAF jelentéseket).

A térképen piros és sárga pontok jelzik az elérhető meteorológiai állomásokat.

Mozgassa az egeret a pont fölött, hogy megjelenjen az állomás neve.

Azután kattintson az időjárási megfigyelések és előrejelzések megtekintéséhez.

A térkép megváltoztatása: kattintson a fekete keresztel jelölt zöld gombra ráközelítéshez, a vonallal jelölt zöld gombra távolításhoz, vagy a zöld nyilakra a szomszédos térképek eléréséhez.


METAR-TAF: